Belleair Bluffs, Florida
Current Conditions -  °F | °C
As of 7:55 AM on Monday 20 Oct 2014 (Local Time) from KCLW Reporting Station
Clear Clear  
Wind Chill: 64°   Ceiling: Unl
Heat Index: 64°   Visibility: 10mi
Dew Point: 63°   Wind: 3mph
Humidity: 94%   Direction: 80°E
Pressure: 30.03"   Gusts: NA
Location:  27.9154°N, 82.8023°W
Report Text: KCLW 201155Z AUTO 08003KT 10SM CLR 18/17 A3003 RMK AO2
Loading
Personal Weather Stations






























Interactive Weather Map
Tropical Storm Tracking
New forecast layout! Learn more

10-Day Weather Forecast

Advertisements
Track Severe Weather on mobile